Time;durP1;ratioP1;P1;durP2;ratioP2;P2;SDS_P1;SDS_P2;PMS_P1;PMS_P2;Temp;Humidity;BMP_temperature;BMP_pressure;BME280_temperature;BME280_humidity;BME280_pressure;Samples;Min_cycle;Max_cycle;Signal;HPM_P1;HPM_P2
2023/01/15 00:01:40;;;;;;;24.20;14.60;;;;;;;-0.86;91.00;100375.86;106992;1257;75153;-77
2023/01/15 00:04:08;;;;;;;26.00;16.20;;;;;;;-0.87;91.01;100373.85;107403;1263;71295;-77
2023/01/15 00:06:37;;;;;;;25.20;15.70;;;;;;;-0.94;91.38;100370.02;107885;1257;72965;-78
2023/01/15 00:09:04;;;;;;;27.80;16.60;;;;;;;-0.98;91.63;100366.58;108347;1257;60470;-78
2023/01/15 00:11:31;;;;;;;30.60;17.70;;;;;;;-1.02;91.68;100364.33;108382;1257;62321;-79
2023/01/15 00:13:59;;;;;;;25.90;16.30;;;;;;;-0.98;91.21;100364.66;108742;1257;73854;-74
2023/01/15 00:16:26;;;;;;;31.60;17.80;;;;;;;-0.92;91.27;100366.77;106877;1257;71249;-74
2023/01/15 00:18:58;;;;;;;28.10;17.20;;;;;;;-0.97;91.34;100360.95;106654;1260;73732;-76
2023/01/15 00:21:26;;;;;;;34.80;18.10;;;;;;;-1.05;91.39;100367.48;106290;1259;59548;-76
2023/01/15 00:29:25;;;;;;;27.90;17.30;;;;;;;-1.06;91.94;100356.40;107201;1259;70482;-76
2023/01/15 00:31:57;;;;;;;31.80;18.20;;;;;;;-1.13;92.32;100356.07;107595;1256;71841;-75
2023/01/15 00:34:24;;;;;;;29.30;17.40;;;;;;;-1.20;92.53;100363.37;106819;1255;63556;-75
2023/01/15 00:36:51;;;;;;;26.70;16.30;;;;;;;-1.17;92.39;100358.00;106427;1257;60434;-76
2023/01/15 00:39:18;;;;;;;32.20;17.50;;;;;;;-1.13;92.20;100360.06;106451;1257;74061;-76
2023/01/15 00:41:45;;;;;;;31.50;16.90;;;;;;;-1.18;92.82;100356.98;106358;1257;71374;-75
2023/01/15 00:44:13;;;;;;;31.50;17.10;;;;;;;-1.22;93.04;100355.45;106193;1254;74595;-75
2023/01/15 00:46:40;;;;;;;30.60;17.30;;;;;;;-1.26;93.37;100351.32;106440;1257;59669;-74
2023/01/15 00:49:07;;;;;;;27.20;15.30;;;;;;;-1.24;93.24;100346.33;106300;1256;61143;-74
2023/01/15 00:51:34;;;;;;;31.20;15.90;;;;;;;-1.19;93.05;100348.67;106349;1257;72808;-74
2023/01/15 00:54:01;;;;;;;30.50;16.90;;;;;;;-1.22;93.23;100344.66;106564;1254;72619;-75
2023/01/15 00:56:28;;;;;;;28.40;14.80;;;;;;;-1.27;93.63;100340.06;107565;1257;73906;-76
2023/01/15 00:58:55;;;;;;;28.80;15.40;;;;;;;-1.29;93.95;100340.53;107064;1261;59393;-74
2023/01/15 01:01:22;;;;;;;23.70;14.10;;;;;;;-1.21;93.95;100343.06;108031;1254;62275;-77
2023/01/15 01:03:51;;;;;;;23.20;13.90;;;;;;;-1.16;93.68;100337.75;107897;1254;71881;-74
2023/01/15 01:06:22;;;;;;;25.00;14.80;;;;;;;-1.20;93.68;100335.20;107894;1254;71031;-77
2023/01/15 01:08:49;;;;;;;25.40;16.20;;;;;;;-1.24;94.00;100330.69;107513;1256;73532;-78
2023/01/15 01:11:18;;;;;;;25.30;14.10;;;;;;;-1.26;94.12;100330.48;107603;1254;62953;-76
2023/01/15 01:13:45;;;;;;;23.00;13.70;;;;;;;-1.18;93.99;100335.77;108275;1254;59759;-78
2023/01/15 01:16:36;;;;;;;20.60;13.30;;;;;;;-1.11;93.42;100340.46;109185;1254;71783;-79
2023/01/15 01:19:06;;;;;;;25.70;14.40;;;;;;;-1.15;93.59;100337.05;108960;1254;71284;-76
2023/01/15 01:21:33;;;;;;;21.60;13.90;;;;;;;-1.22;93.84;100336.33;108578;1256;74625;-77
2023/01/15 01:24:00;;;;;;;22.10;12.90;;;;;;;-1.27;93.91;100335.70;108339;1256;63225;-77
2023/01/15 01:26:28;;;;;;;22.50;12.90;;;;;;;-1.19;93.72;100334.24;108708;1254;60959;-74
2023/01/15 01:28:55;;;;;;;22.10;12.80;;;;;;;-1.11;93.44;100332.30;108138;1253;72940;-77
2023/01/15 01:31:22;;;;;;;21.50;12.60;;;;;;;-1.12;93.68;100328.55;108560;1255;70631;-77
2023/01/15 01:33:50;;;;;;;21.00;12.80;;;;;;;-1.17;93.75;100330.72;108199;1254;74655;-78
2023/01/15 01:36:17;;;;;;;21.40;12.40;;;;;;;-1.24;93.88;100331.19;107739;1255;62116;-75
2023/01/15 01:38:48;;;;;;;18.10;12.10;;;;;;;-1.16;93.83;100325.95;107676;1259;61357;-75
2023/01/15 01:41:16;;;;;;;21.40;12.80;;;;;;;-1.11;93.28;100324.63;108162;1254;74223;-76
2023/01/15 01:44:04;;;;;;;20.80;13.00;;;;;;;-1.14;93.54;100327.23;108395;1254;70108;-77
2023/01/15 01:46:33;;;;;;;20.20;12.10;;;;;;;-1.19;93.62;100328.17;108508;1254;73567;-76
2023/01/15 01:49:07;;;;;;;22.50;12.70;;;;;;;-1.23;93.44;100329.41;108543;1255;62119;-79
2023/01/15 01:52:07;;;;;;;22.10;12.90;;;;;;;-1.16;93.15;100333.95;108958;1254;58917;-77
2023/01/15 01:54:35;;;;;;;22.80;13.80;;;;;;;-1.18;93.34;100339.98;109161;1254;74035;-78
2023/01/15 01:57:02;;;;;;;20.80;13.00;;;;;;;-1.24;93.58;100341.81;108907;1254;71063;-79
2023/01/15 01:59:29;;;;;;;19.40;12.70;;;;;;;-1.27;93.75;100341.45;108770;1254;73731;-78
2023/01/15 02:01:56;;;;;;;17.90;11.40;;;;;;;-1.21;93.78;100340.64;108384;1257;61177;-77
2023/01/15 02:04:23;;;;;;;22.00;12.80;;;;;;;-1.13;93.08;100338.50;108536;1254;61126;-78
2023/01/15 02:06:50;;;;;;;19.80;13.20;;;;;;;-1.15;93.16;100338.79;108373;1254;73889;-79
2023/01/15 02:09:17;;;;;;;22.30;13.10;;;;;;;-1.23;93.37;100340.90;108278;1254;71358;-79
2023/01/15 02:11:44;;;;;;;23.60;14.00;;;;;;;-1.31;93.43;100343.05;108168;1256;72484;-78
2023/01/15 02:14:30;;;;;;;19.40;13.10;;;;;;;-1.33;93.86;100343.52;108163;1254;62213;-76
2023/01/15 02:17:15;;;;;;;19.80;12.20;;;;;;;-1.21;93.73;100342.02;107840;1255;59207;-78
2023/01/15 02:20:00;;;;;;;21.40;13.40;;;;;;;-1.10;93.79;100336.79;107783;1257;74876;-76
2023/01/15 02:23:06;;;;;;;21.70;13.80;;;;;;;-1.12;93.79;100340.86;108010;1256;70543;-76
2023/01/15 02:25:51;;;;;;;21.90;13.60;;;;;;;-1.17;93.81;100341.30;108386;1257;73638;-75
2023/01/15 02:28:27;;;;;;;25.10;14.20;;;;;;;-1.19;93.68;100346.94;108303;1254;63136;-74
2023/01/15 02:31:03;;;;;;;20.60;13.40;;;;;;;-1.07;93.18;100345.67;108604;1254;60374;-77
2023/01/15 02:33:36;;;;;;;24.70;14.90;;;;;;;-1.03;92.94;100338.33;108897;1254;72007;-76
2023/01/15 02:36:05;;;;;;;25.00;14.60;;;;;;;-1.05;93.29;100333.55;108850;1254;71284;-74
2023/01/15 02:38:35;;;;;;;27.70;15.80;;;;;;;-1.04;93.23;100333.52;108518;1254;73603;-74
2023/01/15 02:41:03;;;;;;;24.40;14.30;;;;;;;-1.03;93.42;100334.80;108179;1254;61985;-77
2023/01/15 02:43:35;;;;;;;20.10;12.70;;;;;;;-0.93;92.79;100328.90;108159;1259;61352;-74
2023/01/15 02:46:02;;;;;;;24.20;14.50;;;;;;;-0.88;92.37;100327.10;108305;1257;75345;-75
2023/01/15 02:48:33;;;;;;;24.40;14.50;;;;;;;-0.91;92.53;100326.73;108580;1254;71303;-75
2023/01/15 02:51:23;;;;;;;28.70;14.80;;;;;;;-0.97;92.54;100321.30;107993;1260;73677;-77
2023/01/15 02:53:54;;;;;;;24.80;13.80;;;;;;;-1.01;92.77;100316.98;108171;1256;60093;-77
2023/01/15 02:56:26;;;;;;;24.50;13.80;;;;;;;-0.91;92.34;100310.59;107480;1260;61135;-76
2023/01/15 02:58:56;;;;;;;22.60;13.90;;;;;;;-0.88;92.07;100303.09;107514;1255;74025;-75
2023/01/15 03:01:30;;;;;;;27.40;15.10;;;;;;;-0.96;92.07;100303.89;107502;1257;71133;-76
2023/01/15 03:04:11;;;;;;;23.00;14.80;;;;;;;-1.07;91.92;100310.02;107500;1257;71238;-74
2023/01/15 03:06:44;;;;;;;20.10;12.30;;;;;;;-1.13;92.42;100310.48;107467;1254;63118;-76
2023/01/15 03:09:12;;;;;;;20.10;13.10;;;;;;;-1.05;92.30;100308.01;107450;1254;60888;-76
2023/01/15 03:11:46;;;;;;;17.20;11.90;;;;;;;-0.98;92.16;100313.91;107534;1255;73600;-77
2023/01/15 03:14:23;;;;;;;22.30;13.40;;;;;;;-1.04;92.23;100318.53;107751;1254;71167;-75
2023/01/15 03:16:56;;;;;;;22.50;13.00;;;;;;;-1.12;92.56;100319.28;107828;1254;74939;-76
2023/01/15 03:20:00;;;;;;;22.30;13.10;;;;;;;-1.13;92.96;100315.87;107790;1259;62063;-78
2023/01/15 03:22:29;;;;;;;;;;;;;;;-0.99;92.59;100313.08;108009;1254;61278;-76
2023/01/15 03:25:01;;;;;;;19.90;12.80;;;;;;;-1.00;92.33;100313.48;107773;1254;74455;-76
2023/01/15 03:27:30;;;;;;;22.10;12.50;;;;;;;-1.07;92.60;100309.85;108152;1254;71009;-76
2023/01/15 03:30:03;;;;;;;21.60;12.30;;;;;;;-1.14;92.63;100312.13;108482;1254;73645;-75
2023/01/15 03:32:30;;;;;;;17.70;11.30;;;;;;;-1.13;92.81;100299.34;108495;1254;62258;-74
2023/01/15 03:34:57;;;;;;;23.10;13.60;;;;;;;-1.02;92.33;100298.81;108639;1254;61321;-76
2023/01/15 03:37:27;;;;;;;18.40;11.10;;;;;;;-1.01;92.44;100301.13;108463;1254;72052;-73
2023/01/15 03:39:55;;;;;;;22.90;13.10;;;;;;;-1.02;92.79;100309.08;108361;1254;71304;-74
2023/01/15 03:43:39;;;;;;;18.80;12.50;;;;;;;-1.07;92.78;100308.10;108578;1255;73550;-72
2023/01/15 03:45:36;;;;;;;17.90;10.90;;;;;;;-1.09;92.76;100307.33;108293;1254;62425;-77
2023/01/15 03:48:35;;;;;;;20.10;12.30;;;;;;;-1.01;92.50;100304.30;107921;1257;61242;-76
2023/01/15 03:51:11;;;;;;;22.50;13.50;;;;;;;-1.02;92.41;100302.28;108129;1253;75266;-79
2023/01/15 03:53:53;;;;;;;24.60;14.60;;;;;;;-1.06;92.71;100301.95;108352;1254;70133;-77
2023/01/15 03:56:27;;;;;;;;;;;;;;;-1.08;92.85;100301.55;107600;1254;71924;-75
2023/01/15 03:58:58;;;;;;;;;;;;;;;-1.02;92.45;100302.98;107725;1256;60144;-77
2023/01/15 04:01:35;;;;;;;25.60;14.70;;;;;;;-0.99;92.36;100300.41;108105;1254;59373;-75
2023/01/15 04:04:03;;;;;;;25.90;14.90;;;;;;;-1.07;92.45;100295.38;107697;1257;74724;-74
2023/01/15 04:06:31;;;;;;;26.70;14.50;;;;;;;-1.12;92.77;100296.03;107719;1254;70897;-74
2023/01/15 04:08:58;;;;;;;25.70;15.00;;;;;;;-1.16;92.75;100293.60;107917;1257;71427;-80
2023/01/15 04:11:27;;;;;;;27.90;15.10;;;;;;;-1.09;92.44;100301.41;108152;1254;60434;-79
2023/01/15 04:13:59;;;;;;;28.20;15.10;;;;;;;-1.05;92.42;100301.18;107632;1254;61190;-79
2023/01/15 04:16:35;;;;;;;29.70;16.60;;;;;;;-1.12;92.52;100297.59;107633;1254;76525;-76
2023/01/15 04:19:02;;;;;;;28.20;15.90;;;;;;;-1.20;92.58;100299.73;107673;1253;71451;-77
2023/01/15 04:21:32;;;;;;;28.00;16.40;;;;;;;-1.25;92.70;100301.02;108274;1254;75062;-77
2023/01/15 04:23:59;;;;;;;27.50;15.10;;;;;;;-1.17;92.53;100303.40;107948;1254;60939;-77
2023/01/15 04:26:26;;;;;;;29.80;17.00;;;;;;;-1.10;92.24;100302.89;108904;1258;62295;-76
2023/01/15 04:28:53;;;;;;;30.30;17.60;;;;;;;-1.08;92.61;100300.86;108838;1253;73454;-77
2023/01/15 04:31:20;;;;;;;33.70;18.40;;;;;;;-1.07;92.93;100299.24;108161;1254;69698;-76
2023/01/15 04:33:47;;;;;;;30.90;17.50;;;;;;;-1.06;92.88;100299.38;108056;1254;73659;-77
2023/01/15 04:36:14;;;;;;;29.90;17.10;;;;;;;-1.04;92.65;100293.83;107989;1254;59702;-77
2023/01/15 04:38:41;;;;;;;29.20;16.40;;;;;;;-0.92;92.05;100290.99;108516;1254;60722;-78
2023/01/15 04:44:06;;;;;;;27.90;16.70;;;;;;;-0.99;92.50;100284.90;108800;1257;71776;-78
2023/01/15 04:46:35;;;;;;;31.10;17.10;;;;;;;-1.03;92.42;100288.23;108507;1256;73566;-76
2023/01/15 04:49:04;;;;;;;29.00;16.10;;;;;;;-1.03;92.23;100284.94;108307;1255;60826;-78
2023/01/15 04:51:31;;;;;;;29.00;16.60;;;;;;;-0.95;91.78;100284.36;108827;1257;60487;-77
2023/01/15 04:54:00;;;;;;;32.20;17.20;;;;;;;-0.96;92.08;100282.65;108519;1254;74285;-80
2023/01/15 04:56:27;;;;;;;29.10;16.10;;;;;;;-0.99;92.16;100283.55;108334;1254;72824;-78
2023/01/15 04:58:54;;;;;;;26.50;15.70;;;;;;;-1.06;92.07;100293.96;108515;1254;73714;-79
2023/01/15 05:01:21;;;;;;;27.70;16.10;;;;;;;-1.08;91.77;100292.87;108646;1261;62127;-78
2023/01/15 05:03:48;;;;;;;30.50;16.00;;;;;;;-1.03;91.73;100287.02;108481;1254;59994;-77
2023/01/15 05:06:17;;;;;;;30.60;16.60;;;;;;;-1.01;92.06;100282.74;108416;1259;76020;-79
2023/01/15 05:08:44;;;;;;;32.80;17.90;;;;;;;-1.02;92.43;100281.77;108240;1254;71210;-79
2023/01/15 05:11:11;;;;;;;27.30;15.40;;;;;;;-1.06;92.31;100277.98;108068;1255;74652;-80
2023/01/15 05:13:38;;;;;;;29.10;16.30;;;;;;;-1.09;92.27;100286.63;108424;1256;61107;-80
2023/01/15 05:16:07;;;;;;;27.20;15.90;;;;;;;-1.03;91.90;100279.88;108306;1254;59199;-77
2023/01/15 05:18:34;;;;;;;28.70;16.10;;;;;;;-1.03;91.53;100285.27;108404;1254;74859;-77
2023/01/15 05:21:00;;;;;;;30.40;17.20;;;;;;;-1.09;92.03;100282.67;108406;1253;72894;-76
2023/01/15 05:23:27;;;;;;;30.60;16.20;;;;;;;-1.14;92.12;100281.35;108147;1254;74030;-77
2023/01/15 05:25:54;;;;;;;28.70;15.20;;;;;;;-1.17;92.38;100280.81;107786;1257;62095;-75
2023/01/15 05:28:21;;;;;;;24.30;14.50;;;;;;;-1.10;91.78;100281.67;107973;1260;61138;-75
2023/01/15 05:30:48;;;;;;;25.60;14.60;;;;;;;-1.06;91.63;100281.97;108224;1254;74814;-77
2023/01/15 05:33:15;;;;;;;32.50;16.30;;;;;;;-1.11;91.76;100287.10;108344;1257;71215;-78
2023/01/15 05:35:42;;;;;;;32.40;16.50;;;;;;;-1.20;91.75;100282.55;109153;1254;73342;-78
2023/01/15 05:38:08;;;;;;;31.30;16.40;;;;;;;-1.25;91.88;100277.58;109212;1254;62052;-76
2023/01/15 05:40:35;;;;;;;31.60;16.50;;;;;;;-1.19;91.91;100280.90;109203;1254;61182;-77
2023/01/15 05:43:02;;;;;;;26.80;14.80;;;;;;;-1.22;92.11;100287.47;108922;1254;74890;-76
2023/01/15 05:45:29;;;;;;;35.10;18.80;;;;;;;-1.28;92.16;100285.70;107969;1256;71386;-78
2023/01/15 05:47:56;;;;;;;34.60;18.30;;;;;;;-1.33;92.63;100284.92;108372;1254;73825;-76
2023/01/15 05:50:22;;;;;;;31.50;17.00;;;;;;;-1.29;92.50;100279.35;108551;1254;60514;-75
2023/01/15 05:52:49;;;;;;;29.40;16.40;;;;;;;-1.18;92.28;100278.05;108902;1254;61105;-74
2023/01/15 05:55:16;;;;;;;29.80;17.00;;;;;;;-1.16;92.55;100282.86;109021;1256;74977;-76
2023/01/15 05:57:43;;;;;;;36.00;17.90;;;;;;;-1.20;92.45;100287.55;108921;1256;71115;-80
2023/01/15 06:00:11;;;;;;;29.90;15.80;;;;;;;-1.27;92.46;100288.97;108776;1254;75184;-77
2023/01/15 06:02:40;;;;;;;32.40;17.20;;;;;;;-1.31;92.54;100293.18;108949;1255;61315;-79
2023/01/15 06:05:07;;;;;;;32.80;17.00;;;;;;;-1.23;92.44;100287.19;109198;1254;60840;-79
2023/01/15 06:07:34;;;;;;;32.10;17.60;;;;;;;-1.16;92.39;100286.48;109283;1256;74682;-81
2023/01/15 06:10:01;;;;;;;32.50;17.10;;;;;;;-1.18;92.42;100282.77;109179;1254;71439;-82
2023/01/15 06:12:28;;;;;;;28.80;15.30;;;;;;;-1.21;92.74;100282.05;109175;1254;73444;-81
2023/01/15 06:14:55;;;;;;;32.70;16.00;;;;;;;-1.24;92.54;100279.11;109250;1256;62194;-79
2023/01/15 06:17:22;;;;;;;28.60;15.80;;;;;;;-1.18;92.37;100275.81;109307;1254;61197;-78
2023/01/15 06:19:48;;;;;;;29.00;16.40;;;;;;;-1.11;92.34;100274.41;109296;1254;74884;-79
2023/01/15 06:22:17;;;;;;;34.50;17.50;;;;;;;-1.19;92.34;100276.05;108796;1255;71014;-78
2023/01/15 06:24:44;;;;;;;35.10;17.60;;;;;;;-1.28;92.45;100282.08;108738;1254;73799;-81
2023/01/15 06:27:11;;;;;;;31.80;15.10;;;;;;;-1.34;92.36;100283.45;109110;1257;60268;-80
2023/01/15 06:29:38;;;;;;;28.30;15.90;;;;;;;-1.29;92.16;100283.52;109272;1254;61148;-80
2023/01/15 06:32:05;;;;;;;34.30;17.10;;;;;;;-1.22;92.01;100278.98;109458;1254;74822;-85
2023/01/15 06:34:35;;;;;;;37.20;18.50;;;;;;;-1.28;92.06;100278.42;109443;1255;69709;-83
2023/01/15 06:37:02;;;;;;;37.60;19.70;;;;;;;-1.37;92.43;100281.84;109252;1254;71966;-77
2023/01/15 06:39:28;;;;;;;38.70;19.40;;;;;;;-1.40;92.82;100282.84;109227;1255;61747;-78
2023/01/15 06:47:26;;;;;;;36.00;19.00;;;;;;;-1.26;92.60;100270.85;109303;1257;71387;-79
2023/01/15 06:49:54;;;;;;;35.10;17.90;;;;;;;-1.32;92.46;100276.39;109321;1254;73628;-78
2023/01/15 06:52:22;;;;;;;34.20;17.80;;;;;;;-1.27;92.33;100269.69;109279;1254;62108;-81
2023/01/15 06:54:49;;;;;;;39.40;20.30;;;;;;;-1.20;92.13;100268.08;109347;1254;61355;-82
2023/01/15 06:57:17;;;;;;;39.50;20.90;;;;;;;-1.22;92.49;100268.36;109390;1254;74880;-79
2023/01/15 06:59:45;;;;;;;40.20;20.80;;;;;;;-1.23;92.56;100266.87;109353;1255;69520;-78
2023/01/15 07:02:12;;;;;;;34.20;18.40;;;;;;;-1.21;92.65;100270.23;109254;1256;73466;-78
2023/01/15 07:04:39;;;;;;;31.40;16.90;;;;;;;-1.13;91.92;100271.04;109230;1254;60172;-77
2023/01/15 07:07:06;;;;;;;31.30;17.90;;;;;;;-1.09;91.18;100266.63;109118;1256;60431;-78
2023/01/15 07:09:33;;;;;;;37.70;18.30;;;;;;;-1.09;91.63;100266.66;108742;1254;72039;-78
2023/01/15 07:11:59;;;;;;;33.50;18.90;;;;;;;-1.12;91.80;100268.92;109045;1254;71265;-76
2023/01/15 07:14:30;;;;;;;33.60;17.40;;;;;;;-1.14;91.73;100271.29;109229;1250;73865;-78
2023/01/15 07:16:58;;;;;;;32.80;16.60;;;;;;;-1.16;91.74;100272.61;109411;1248;62181;-78
2023/01/15 07:19:26;;;;;;;33.50;18.00;;;;;;;-1.09;91.14;100269.77;109498;1248;61277;-77
2023/01/15 07:21:53;;;;;;;34.10;19.10;;;;;;;-1.01;91.12;100277.70;109084;1249;74644;-77
2023/01/15 07:24:20;;;;;;;34.30;19.10;;;;;;;-1.05;91.15;100273.92;109365;1248;71097;-82
2023/01/15 07:26:47;;;;;;;34.40;18.00;;;;;;;-1.09;91.31;100274.50;109775;1247;72678;-82
2023/01/15 07:29:14;;;;;;;40.10;18.20;;;;;;;-1.11;91.07;100276.34;109642;1249;61917;-84
2023/01/15 07:31:41;;;;;;;34.30;17.70;;;;;;;-1.01;91.03;100276.83;109793;1247;61302;-83
2023/01/15 07:34:08;;;;;;;37.40;20.30;;;;;;;-0.91;90.85;100280.13;109737;1247;72730;-82
2023/01/15 07:36:36;;;;;;;33.80;19.00;;;;;;;-0.91;90.85;100277.38;109773;1247;70963;-84
2023/01/15 07:39:06;;;;;;;42.30;19.80;;;;;;;-0.94;90.69;100282.40;109721;1247;72192;-80
2023/01/15 07:50:10;;;;;;;34.90;18.70;;;;;;;-1.01;90.36;100275.96;109679;1247;71099;-84
2023/01/15 07:52:37;;;;;;;35.10;18.30;;;;;;;-1.04;90.60;100276.65;109898;1247;74302;-83
2023/01/15 07:55:04;;;;;;;36.30;18.80;;;;;;;-1.08;90.32;100277.19;109741;1250;62277;-83
2023/01/15 07:57:31;;;;;;;34.00;18.00;;;;;;;-1.03;90.24;100277.78;109966;1247;59713;-84
2023/01/15 07:59:58;;;;;;;31.40;17.50;;;;;;;-0.93;90.33;100278.19;109939;1249;74803;-83
2023/01/15 08:02:26;;;;;;;31.50;17.00;;;;;;;-0.94;90.22;100279.45;109759;1249;71401;-86
2023/01/15 08:04:53;;;;;;;32.50;18.80;;;;;;;-1.01;90.43;100273.73;109545;1250;72124;-85
2023/01/15 08:07:20;;;;;;;36.80;19.10;;;;;;;-1.02;90.26;100278.10;109768;1249;61835;-86
2023/01/15 08:09:47;;;;;;;34.70;18.10;;;;;;;-0.94;89.96;100279.41;109847;1250;58877;-87
2023/01/15 08:15:11;;;;;;;38.60;20.40;;;;;;;-0.85;89.90;100279.64;109849;1250;70890;-87
2023/01/15 08:17:40;;;;;;;38.00;19.20;;;;;;;-0.88;89.97;100284.82;109810;1250;73528;-84
2023/01/15 08:20:10;;;;;;;32.40;18.30;;;;;;;-0.90;89.63;100281.98;109888;1247;62166;-85
2023/01/15 08:22:37;;;;;;;30.80;17.90;;;;;;;-0.80;89.27;100279.52;109844;1248;59249;-85
2023/01/15 08:25:08;;;;;;;36.00;19.10;;;;;;;-0.73;89.24;100277.80;109855;1247;74438;-87
2023/01/15 08:27:36;;;;;;;34.80;19.10;;;;;;;-0.76;89.09;100271.02;109770;1247;71111;-82
2023/01/15 08:30:04;;;;;;;35.20;19.20;;;;;;;-0.81;89.07;100272.80;109824;1247;73584;-84
2023/01/15 08:32:31;;;;;;;30.90;17.40;;;;;;;-0.79;88.83;100271.14;109848;1247;62025;-84
2023/01/15 08:34:58;;;;;;;33.60;17.50;;;;;;;-0.70;88.70;100268.39;109810;1248;61190;-84
2023/01/15 08:37:25;;;;;;;35.20;19.20;;;;;;;-0.71;88.75;100256.83;109851;1247;73924;-84
2023/01/15 08:39:52;;;;;;;32.30;19.10;;;;;;;-0.71;89.07;100260.63;109819;1251;70913;-85
2023/01/15 08:42:19;;;;;;;33.40;18.40;;;;;;;-0.70;89.22;100264.43;109803;1247;73615;-83
2023/01/15 08:44:47;;;;;;;32.20;17.60;;;;;;;-0.69;88.99;100262.92;109720;1247;62041;-85
2023/01/15 08:47:15;;;;;;;30.40;16.90;;;;;;;-0.56;88.79;100259.48;109831;1248;61108;-86
2023/01/15 08:49:43;;;;;;;36.20;18.70;;;;;;;-0.54;88.58;100257.27;109947;1247;73960;-87
2023/01/15 08:52:10;;;;;;;31.80;18.90;;;;;;;-0.62;88.46;100251.61;109786;1247;70501;-86
2023/01/15 08:54:37;;;;;;;35.10;18.10;;;;;;;-0.70;88.70;100250.98;109882;1248;71559;-84
2023/01/15 08:57:08;;;;;;;34.60;19.40;;;;;;;-0.71;88.63;100250.02;109718;1247;61790;-84
2023/01/15 08:59:35;;;;;;;39.10;20.50;;;;;;;-0.62;88.79;100247.93;109705;1248;59006;-84
2023/01/15 09:02:02;;;;;;;41.90;21.60;;;;;;;-0.57;88.77;100240.23;109783;1247;74864;-84
2023/01/15 09:04:29;;;;;;;39.30;20.20;;;;;;;-0.57;89.09;100235.70;109667;1247;69358;-85
2023/01/15 09:06:56;;;;;;;33.00;17.60;;;;;;;-0.56;88.86;100239.30;109727;1247;73473;-86
2023/01/15 09:09:23;;;;;;;36.60;19.50;;;;;;;-0.49;88.67;100237.16;109787;1247;60980;-84
2023/01/15 09:11:50;;;;;;;31.80;17.90;;;;;;;-0.42;88.53;100237.45;109785;1247;60071;-82
2023/01/15 09:14:17;;;;;;;36.60;19.70;;;;;;;-0.45;88.49;100231.03;109948;1247;73402;-83
2023/01/15 09:17:04;;;;;;;42.10;20.60;;;;;;;-0.48;88.69;100226.52;109670;1247;71298;-82
2023/01/15 09:19:31;;;;;;;33.60;18.10;;;;;;;-0.49;88.63;100220.09;109572;1250;73463;-82
2023/01/15 09:21:58;;;;;;;35.40;18.60;;;;;;;-0.39;88.55;100217.77;109856;1251;61099;-82
2023/01/15 09:24:25;;;;;;;29.20;16.80;;;;;;;-0.26;88.27;100210.09;109750;1248;60935;-83
2023/01/15 09:26:52;;;;;;;30.70;17.30;;;;;;;-0.29;87.95;100212.39;109710;1248;76739;-81
2023/01/15 09:29:19;;;;;;;33.30;17.90;;;;;;;-0.37;88.00;100207.23;109729;1248;71074;-83
2023/01/15 09:31:46;;;;;;;31.90;17.20;;;;;;;-0.45;88.08;100213.10;109779;1247;73346;-82
2023/01/15 09:34:14;;;;;;;29.80;16.40;;;;;;;-0.43;87.90;100223.05;109694;1248;62176;-83
2023/01/15 09:36:41;;;;;;;35.00;17.50;;;;;;;-0.40;87.69;100223.25;109683;1250;59363;-83
2023/01/15 09:39:09;;;;;;;32.50;18.30;;;;;;;-0.45;87.94;100213.77;109739;1248;72491;-81
2023/01/15 09:44:52;;;;;;;32.80;16.80;;;;;;;-0.54;88.22;100200.19;109575;1248;71626;-81
2023/01/15 09:47:31;;;;;;;32.60;18.20;;;;;;;-0.43;88.19;100196.98;109506;1248;62084;-80
2023/01/15 09:50:16;;;;;;;34.90;19.90;;;;;;;-0.41;88.11;100182.55;109745;1250;61377;-84
2023/01/15 09:52:49;;;;;;;31.20;17.40;;;;;;;-0.42;88.35;100174.62;109839;1248;74693;-80
2023/01/15 09:55:30;;;;;;;33.40;20.20;;;;;;;-0.42;88.10;100164.17;109798;1247;70917;-79
2023/01/15 09:57:59;;;;;;;31.90;18.20;;;;;;;-0.40;88.29;100158.69;109796;1248;72495;-80
2023/01/15 10:00:36;;;;;;;27.20;15.50;;;;;;;-0.25;87.87;100150.17;109531;1248;61933;-83
2023/01/15 10:03:24;;;;;;;27.50;15.10;;;;;;;-0.15;87.64;100143.70;109813;1248;60870;-83
2023/01/15 10:05:54;;;;;;;29.00;16.20;;;;;;;-0.23;87.31;100145.32;109441;1248;72466;-83
2023/01/15 10:08:32;;;;;;;26.20;15.30;;;;;;;-0.31;87.39;100144.25;109646;1255;71267;-81
2023/01/15 10:11:03;;;;;;;25.20;14.00;;;;;;;-0.37;87.14;100154.83;109589;1248;70475;-83
2023/01/15 10:13:44;;;;;;;22.60;14.10;;;;;;;-0.33;86.87;100157.27;109655;1250;61784;-83
2023/01/15 10:16:13;;;;;;;24.80;15.10;;;;;;;-0.33;86.95;100157.42;109599;1248;61124;-84
2023/01/15 10:18:42;;;;;;;27.50;15.40;;;;;;;-0.37;87.27;100156.59;109678;1248;74676;-83
2023/01/15 10:21:43;;;;;;;27.10;15.40;;;;;;;-0.41;87.23;100146.70;109759;1248;69970;-84
2023/01/15 10:24:25;;;;;;;27.40;15.90;;;;;;;-0.39;87.33;100145.91;109769;1250;73803;-86
2023/01/15 10:26:56;;;;;;;27.70;15.20;;;;;;;-0.25;86.92;100150.16;109787;1248;60567;-81
2023/01/15 10:29:39;;;;;;;26.60;15.00;;;;;;;-0.27;86.98;100143.48;109577;1247;61016;-82
2023/01/15 10:32:12;;;;;;;24.80;14.80;;;;;;;-0.33;86.98;100144.39;109665;1251;74925;-83
2023/01/15 10:34:58;;;;;;;19.60;12.70;;;;;;;-0.43;86.84;100134.64;109694;1248;71132;-82
2023/01/15 10:37:41;;;;;;;22.80;13.70;;;;;;;-0.38;86.80;100128.98;109743;1250;73746;-81
2023/01/15 10:41:02;;;;;;;21.10;13.40;;;;;;;-0.40;86.85;100122.83;109726;1247;59773;-84
2023/01/15 10:43:32;;;;;;;28.20;15.30;;;;;;;-0.45;87.28;100108.34;109193;1257;60904;-81
2023/01/15 10:46:00;;;;;;;28.80;15.60;;;;;;;-0.46;87.30;100099.85;109728;1248;74582;-80
2023/01/15 10:48:40;;;;;;;30.10;17.10;;;;;;;-0.41;87.61;100099.58;109608;1255;69934;-79
2023/01/15 10:51:21;;;;;;;24.00;14.60;;;;;;;-0.26;86.94;100088.58;109655;1251;71709;-78
2023/01/15 10:54:05;;;;;;;25.00;14.20;;;;;;;-0.17;86.82;100092.95;109620;1251;60833;-80
2023/01/15 10:56:34;;;;;;;21.70;13.50;;;;;;;-0.20;86.92;100085.46;109685;1248;60417;-80
2023/01/15 10:59:10;;;;;;;20.20;12.10;;;;;;;-0.23;86.97;100089.83;109715;1248;74775;-81
2023/01/15 11:01:37;;;;;;;17.30;10.70;;;;;;;-0.28;86.73;100096.54;109699;1251;71245;-80
2023/01/15 11:04:05;;;;;;;17.60;11.60;;;;;;;-0.23;86.45;100086.67;109826;1247;73215;-82
2023/01/15 11:06:33;;;;;;;20.40;12.20;;;;;;;-0.23;86.51;100078.28;109685;1251;58087;-82
2023/01/15 11:09:00;;;;;;;18.20;11.40;;;;;;;-0.29;86.79;100076.28;109724;1248;59308;-82
2023/01/15 11:20:49;;;;;;;16.80;10.80;;;;;;;-0.16;86.95;100062.09;109724;1248;60595;-82
2023/01/15 11:23:19;;;;;;;15.60;10.00;;;;;;;-0.24;86.93;100051.71;109729;1250;59860;-80
2023/01/15 11:26:06;;;;;;;17.70;10.20;;;;;;;-0.29;86.88;100051.00;109692;1248;74873;-80
2023/01/15 11:28:41;;;;;;;16.40;9.10;;;;;;;-0.29;87.00;100050.98;109644;1248;71484;-81
2023/01/15 11:31:10;;;;;;;18.40;11.20;;;;;;;-0.25;87.04;100053.05;109727;1247;73542;-82
2023/01/15 11:33:37;;;;;;;17.40;11.40;;;;;;;-0.27;87.26;100043.60;109483;1251;302492;-80
2023/01/15 11:37:08;;;;;;;13.40;9.80;;;;;;;-0.25;87.44;100041.02;105688;1292;600024;-78
2023/01/15 11:39:35;;;;;;;15.30;10.10;;;;;;;-0.27;87.35;100048.42;108505;1268;62133;-85
2023/01/15 11:51:09;;;;;;;18.50;11.20;;;;;;;-0.27;86.89;100053.30;104762;1264;155440;-65
2023/01/15 11:53:43;;;;;;;18.60;11.50;;;;;;;-0.35;86.95;100041.45;104902;1269;59848;-68
2023/01/15 11:56:10;;;;;;;;;;;;;;;-0.29;87.02;100038.99;104955;1263;62026;-69
2023/01/15 11:58:45;;;;;;;18.70;12.20;;;;;;;-0.27;87.18;100048.83;105212;1260;74104;-70
2023/01/15 12:01:33;;;;;;;18.80;13.10;;;;;;;-0.35;87.36;100045.77;105059;1264;71354;-70
2023/01/15 12:04:17;;;;;;;20.40;12.80;;;;;;;-0.40;87.45;100048.90;104981;1261;72853;-69
2023/01/15 12:06:44;;;;;;;22.40;12.60;;;;;;;-0.44;87.58;100053.98;105203;1260;62059;-72